Terminal Aerodrome Forecast
Issued by NWS Cleveland, OH

Home | Current Version | Previous Version | Text Only | Print | Product List | Glossary On
Versions: 1 2 3 4 5 6 7 8 9 10 11 12 13 14 15 16 17 18 19 20 21 22 23 24 25 26 27 28 29 30 31 32 33 34 35
000
FTUS41 KCLE 230500
TAFYNG
TAF
KYNG 230522Z 2306/2406 36003KT 6SM BR SCT030 BKN080
     FM230700 VRB03KT 5SM BR SCT030 BKN080
     FM230900 07002KT 1/2SM FG BKN003
     FM231430 06004KT P6SM BKN025
     FM231800 04006KT P6SM BKN035
     FM240100 06004KT P6SM SCT040
     FM240500 07004KT 5SM BR SCT040=

USA.gov is the U.S. government's official web portal to all federal, state and local government web resources and services.